This is the latest recevied weather packets stored in our database for station/object OH5GWF-1. If no packets are shown the sender has not sent any weather packets the latest 10 day(s).
| Time | Temp. | Humidity | Pressure | Rain* | Wind** | Luminosity | Snow |
|---|---|---|---|---|---|---|---|
| 1777633678 | 24.44° C | 40% | 1018 hPa | 0 mm | - | - | - |
| 1777633255 | 23.33° C | 41% | 1018.1 hPa | 0 mm | - | - | - |
| 1777632833 | 23.33° C | 42% | 1018.2 hPa | 0 mm | - | - | - |
| 1777632410 | 23.33° C | 43% | 1018.3 hPa | 0 mm | - | - | - |
| 1777632000 | 21.11° C | 45% | 1018.3 hPa | 0 mm | - | - | - |
| 1777631578 | 20° C | 46% | 1018.4 hPa | 0 mm | - | - | - |
| 1777631156 | 20° C | 46% | 1018.5 hPa | 0 mm | - | - | - |
| 1777630734 | 19.44° C | 47% | 1018.5 hPa | 0 mm | - | - | - |
| 1777630312 | 19.44° C | 47% | 1018.7 hPa | 0 mm | - | - | - |
| 1777629891 | 18.33° C | 48% | 1018.7 hPa | 0 mm | - | - | - |
| 1777629470 | 19.44° C | 47% | 1018.8 hPa | 0 mm | - | - | - |
| 1777629049 | 19.44° C | 48% | 1018.7 hPa | 0 mm | - | - | - |
| 1777628639 | 19.44° C | 49% | 1018.7 hPa | 0 mm | - | - | - |
| 1777628216 | 19.44° C | 46% | 1018.9 hPa | 0 mm | - | - | - |
| 1777627794 | 21.11° C | 45% | 1018.8 hPa | 0 mm | - | - | - |
| 1777627372 | 20.56° C | 47% | 1019.1 hPa | 0 mm | - | - | - |
| 1777626950 | 20° C | 48% | 1018.9 hPa | 0 mm | - | - | - |
| 1777626539 | 20.56° C | 46% | 1019.1 hPa | 0 mm | - | - | - |
| 1777626116 | 21.11° C | 47% | 1019.2 hPa | 0 mm | - | - | - |
| 1777625694 | 21.11° C | 47% | 1019.1 hPa | 0 mm | - | - | - |
| 1777625271 | 21.67° C | 46% | 1019.4 hPa | 0 mm | - | - | - |
| 1777624860 | 21.11° C | 48% | 1019.6 hPa | 0 mm | - | - | - |
| 1777624438 | 20.56° C | 49% | 1019.7 hPa | 0 mm | - | - | - |
| 1777624015 | 20.56° C | 48% | 1019.8 hPa | 0 mm | - | - | - |
| 1777623592 | 20.56° C | 49% | 1019.6 hPa | 0 mm | - | - | - |
* Rain latest hour (hover to see other rain measurements)
** Current wind speed in m/s (hover to see current wind gust speed)